Aschaffenburg, Germany

1:32 AM CEST on September 17, 2014 (GMT +0200)
Gross-Umstadt | Change Station
CLOSE
Current Station
Personal Weather Station
Location: Gross-Umstadt, HESSEN
Elevation: 656 ft
Nearby Weather Stations

Elev 656 ft 49.87 °N, 8.96 °E | Updated 20 minutes ago

Clear
Clear
54.3 °F
Feels Like 54.3 °F
N
0.0
Wind Variable Wind from SW
Gusts 0.0 mph

Today
High -- | Low -- °F
--% Chance of Precip.
Yesterday
High -- | Low -- °F
Precip. -- in
7:02 AM 7:33 PM
Last Quarter, 41% visible
Pressure 29.95 in
Visibility -9999.0 miles
Clouds
Dew Point 54 °F
Humidity 96%
Rainfall 0.00 in
Snow Depth Not available.
UV Not available.
Pollen Not available.
Air Quality Not available.
Flu Activity Not available.
METAR EDDF 162320Z 07004KT CAVOK 15/14 Q1014 NOSIG

More Conditions Fewer Conditions

Pressure 29.95 in
Visibility -9999.0 miles
Clouds
Dew Point 54 °F
Humidity 96%
Rainfall 0.00 in
Snow Depth Not available.
UV Not available.
Pollen Not available.
Air Quality Not available.
Flu Activity Not available.
METAR EDDF 162320Z 07004KT CAVOK 15/14 Q1014 NOSIG

More Conditions Fewer Conditions

10-Day Weather Forecast

Almanac

Astronomy

Sep. 17, 2014 Rise Set
Actual Time 7:02 AM CEST 7:33 PM CEST
Civil Twilight 6:29 AM CEST 8:05 PM CEST
Nautical Twilight 5:51 AM CEST 8:44 PM CEST
Astronomical Twilight 5:10 AM CEST 9:24 PM CEST
Moon 12:23 AM CEST (9/17) 3:55 PM CEST (9/17)
Length of Visible Light 13h 35m
Length of Day
12h 31m
Tomorrow will be 3m 41s shorter.
Last Quarter, 41% of the Moon is Illuminated
Sep 16
Last Quarter
Sep 24
New
Oct 1
First Quarter
Oct 8
Full
Oct 15
Last Quarter

Yesterday's Extremes

Country Highs Country Lows

Community

WunderPhotos

Upload Photos

1,753,915 photos uploaded!

Nearby

Snow Depth

Not available.

Earthquake Activity

City Distance Mag. Time & Date
No recent earthquake activity has been reported nearby.
Minimum magnitude displayed is 2.5.

Coastal Water Temperatures

Place Temperature
No Stations Reporting

Nearby Weather Stations